Time;durP1;ratioP1;P1;durP2;ratioP2;P2;SDS_P1;SDS_P2;PMS_P1;PMS_P2;Temp;Humidity;BMP_temperature;BMP_pressure;BME280_temperature;BME280_humidity;BME280_pressure;Samples;Min_cycle;Max_cycle;Signal;HPM_P1;HPM_P2
2023/12/12 00:03:14;;;;;;;;;;;;;;;5.39;100.00;95215.00;10464980;28;2813;-67
2023/12/12 00:08:17;;;;;;;;;;;;;;;5.38;100.00;95218.75;10456666;28;2860;-66
2023/12/12 00:13:19;;;;;;;;;;;;;;;5.40;100.00;95219.28;10495208;28;2797;-66
2023/12/12 00:18:21;;;;;;;;;;;;;;;5.34;100.00;95228.31;10458671;28;2939;-65
2023/12/12 00:23:24;;;;;;;;;;;;;;;5.32;100.00;95230.41;10466132;28;3004;-66
2023/12/12 00:28:27;;;;;;;;;;;;;;;5.31;100.00;95228.00;10454848;28;2840;-68
2023/12/12 00:33:30;;;;;;;;;;;;;;;5.32;100.00;95249.06;10459459;28;2825;-64
2023/12/12 00:38:33;;;;;;;;;;;;;;;5.34;100.00;95256.81;10460563;28;2907;-66
2023/12/12 00:43:35;;;;;;;;;;;;;;;5.36;100.00;95247.53;10444946;28;5224;-65
2023/12/12 00:48:38;;;;;;;;;;;;;;;5.38;100.00;95233.94;10451156;28;2935;-68
2023/12/12 00:53:40;;;;;;;;;;;;;;;5.37;100.00;95227.81;10456662;28;2911;-68
2023/12/12 00:58:43;;;;;;;;;;;;;;;5.34;100.00;95233.66;10467122;28;2776;-67
2023/12/12 01:03:45;;;;;;;;;;;;;;;5.36;100.00;95231.53;10466776;28;2873;-65
2023/12/12 01:08:48;;;;;;;;;;;;;;;5.36;100.00;95223.53;10463046;28;2896;-71
2023/12/12 01:13:50;;;;;;;;;;;;;;;5.32;100.00;95217.09;10456139;28;3268;-69
2023/12/12 01:18:52;;;;;;;;;;;;;;;5.51;100.00;95232.72;10456853;28;2997;-67
2023/12/12 01:23:55;;;;;;;;;;;;;;;5.66;100.00;95228.31;10467480;28;2764;-68
2023/12/12 01:28:57;;;;;;;;;;;;;;;5.66;100.00;95230.97;10483274;28;2890;-76
2023/12/12 01:34:00;;;;;;;;;;;;;;;5.56;100.00;95230.88;10456660;28;2855;-71
2023/12/12 01:39:03;;;;;;;;;;;;;;;5.64;100.00;95240.28;10469933;28;2833;-67
2023/12/12 01:44:05;;;;;;;;;;;;;;;5.60;100.00;95241.84;10469600;28;5198;-66
2023/12/12 01:49:08;;;;;;;;;;;;;;;5.61;100.00;95248.78;10458215;28;2878;-70
2023/12/12 01:54:10;;;;;;;;;;;;;;;5.61;100.00;95230.13;10473581;28;2843;-66
2023/12/12 01:59:12;;;;;;;;;;;;;;;5.58;100.00;95227.97;10466688;28;2938;-65
2023/12/12 02:04:15;;;;;;;;;;;;;;;5.61;100.00;95244.25;10470991;28;2840;-65
2023/12/12 02:09:18;;;;;;;;;;;;;;;5.57;100.00;95240.50;10471426;28;2848;-66
2023/12/12 02:14:20;;;;;;;;;;;;;;;5.60;100.00;95231.19;10473059;28;2785;-66
2023/12/12 02:19:22;;;;;;;;;;;;;;;5.61;100.00;95222.94;10469817;28;2858;-65
2023/12/12 02:24:25;;;;;;;;;;;;;;;5.66;100.00;95220.31;10463642;28;2808;-65
2023/12/12 02:29:27;;;;;;;;;;;;;;;5.52;100.00;95210.31;10466603;28;2880;-68
2023/12/12 02:34:30;;;;;;;;;;;;;;;5.55;100.00;95207.97;10462669;28;2915;-66
2023/12/12 02:39:32;;;;;;;;;;;;;;;5.54;100.00;95202.88;10458168;28;2806;-66
2023/12/12 02:44:35;;;;;;;;;;;;;;;5.64;100.00;95200.28;10454716;28;4920;-70
2023/12/12 02:49:37;;;;;;;;;;;;;;;5.72;100.00;95223.78;10453504;28;2858;-67
2023/12/12 02:54:40;;;;;;;;;;;;;;;5.84;100.00;95212.94;10465049;28;2841;-66
2023/12/12 02:59:42;;;;;;;;;;;;;;;5.91;100.00;95205.53;10455560;28;3050;-65
2023/12/12 03:04:44;;;;;;;;;;;;;;;5.93;100.00;95214.91;10465043;28;2907;-64
2023/12/12 03:09:49;;;;;;;;;;;;;;;5.99;100.00;95202.41;10467583;28;2851;-64
2023/12/12 03:14:51;;;;;;;;;;;;;;;5.90;100.00;95201.25;10456761;28;2975;-64
2023/12/12 03:19:54;;;;;;;;;;;;;;;5.80;100.00;95185.19;10452893;28;2971;-65
2023/12/12 03:24:56;;;;;;;;;;;;;;;5.83;100.00;95195.34;10462153;28;2835;-64
2023/12/12 03:29:59;;;;;;;;;;;;;;;5.68;100.00;95194.19;10458179;28;2850;-66
2023/12/12 03:35:01;;;;;;;;;;;;;;;5.65;100.00;95197.34;10463656;28;2800;-64
2023/12/12 03:40:04;;;;;;;;;;;;;;;5.63;100.00;95214.66;10457782;28;2868;-67
2023/12/12 03:45:07;;;;;;;;;;;;;;;5.60;100.00;95213.34;10455108;28;4982;-65
2023/12/12 03:50:09;;;;;;;;;;;;;;;5.68;100.00;95198.72;10453555;28;3061;-66
2023/12/12 03:55:12;;;;;;;;;;;;;;;5.71;100.00;95195.53;10455829;28;2878;-64
2023/12/12 04:00:14;;;;;;;;;;;;;;;5.79;100.00;95195.06;10457201;28;2855;-74
2023/12/12 04:05:16;;;;;;;;;;;;;;;5.90;100.00;95199.38;10457860;28;2834;-65
2023/12/12 04:10:19;;;;;;;;;;;;;;;5.94;100.00;95187.16;10461289;28;2809;-65
2023/12/12 04:15:21;;;;;;;;;;;;;;;5.93;100.00;95172.22;10452596;28;2864;-65
2023/12/12 04:20:24;;;;;;;;;;;;;;;5.84;100.00;95168.41;10465905;28;2832;-65
2023/12/12 04:25:27;;;;;;;;;;;;;;;5.91;100.00;95162.84;10456136;28;2832;-65
2023/12/12 04:30:29;;;;;;;;;;;;;;;6.01;100.00;95162.91;10451900;28;2897;-65
2023/12/12 04:35:32;;;;;;;;;;;;;;;6.06;100.00;95170.97;10459958;28;2990;-65
2023/12/12 04:40:34;;;;;;;;;;;;;;;6.05;100.00;95168.56;10455794;28;2865;-64
2023/12/12 04:45:37;;;;;;;;;;;;;;;5.99;100.00;95174.94;10458524;28;2908;-65
2023/12/12 04:50:39;;;;;;;;;;;;;;;6.07;100.00;95175.22;10451044;28;2876;-70
2023/12/12 04:55:42;;;;;;;;;;;;;;;6.26;100.00;95180.91;10445674;28;2905;-65
2023/12/12 05:00:44;;;;;;;;;;;;;;;6.31;100.00;95178.28;10456312;28;3145;-66
2023/12/12 05:05:47;;;;;;;;;;;;;;;6.29;100.00;95182.25;10459891;28;2812;-65
2023/12/12 05:10:50;;;;;;;;;;;;;;;6.35;100.00;95186.56;10464038;28;2910;-65
2023/12/12 05:15:52;;;;;;;;;;;;;;;6.39;100.00;95180.44;10469965;28;2955;-65
2023/12/12 05:20:55;;;;;;;;;;;;;;;6.38;100.00;95168.16;10463829;28;3228;-65
2023/12/12 05:25:57;;;;;;;;;;;;;;;6.39;100.00;95163.63;10466449;28;2856;-65
2023/12/12 05:30:59;;;;;;;;;;;;;;;6.31;100.00;95167.59;10470958;28;2821;-66
2023/12/12 05:36:02;;;;;;;;;;;;;;;6.33;100.00;95160.13;10462800;28;2859;-71
2023/12/12 05:41:04;;;;;;;;;;;;;;;6.29;100.00;95171.56;10462027;28;4920;-70
2023/12/12 05:46:07;;;;;;;;;;;;;;;6.23;100.00;95170.75;10466186;28;2998;-66
2023/12/12 05:51:09;;;;;;;;;;;;;;;6.16;100.00;95164.84;10458962;28;2858;-66
2023/12/12 05:56:13;;;;;;;;;;;;;;;6.09;100.00;95165.09;10459015;28;2865;-66
2023/12/12 06:01:17;;;;;;;;;;;;;;;6.04;100.00;95150.91;10463100;28;2840;-66
2023/12/12 06:06:21;;;;;;;;;;;;;;;6.04;100.00;95158.91;10465451;28;2843;-66
2023/12/12 06:11:24;;;;;;;;;;;;;;;6.14;100.00;95158.97;10464772;28;2896;-69
2023/12/12 06:16:27;;;;;;;;;;;;;;;6.19;100.00;95153.66;10465036;28;2878;-66
2023/12/12 06:21:29;;;;;;;;;;;;;;;6.17;100.00;95148.59;10470406;28;2753;-65
2023/12/12 06:26:32;;;;;;;;;;;;;;;6.28;100.00;95141.41;10462106;28;2865;-66
2023/12/12 06:31:35;;;;;;;;;;;;;;;6.33;100.00;95133.44;10461232;28;2863;-67
2023/12/12 06:36:37;;;;;;;;;;;;;;;6.38;100.00;95133.44;10467933;28;2975;-66
2023/12/12 06:41:40;;;;;;;;;;;;;;;6.42;100.00;95121.16;10478064;28;4897;-66
2023/12/12 06:46:42;;;;;;;;;;;;;;;6.43;100.00;95128.13;10457482;28;2946;-68
2023/12/12 06:51:45;;;;;;;;;;;;;;;6.40;100.00;95112.63;10465635;28;2945;-64
2023/12/12 06:56:47;;;;;;;;;;;;;;;6.34;100.00;95103.00;10461182;28;2946;-66
2023/12/12 07:01:51;;;;;;;;;;;;;;;6.30;100.00;95104.59;10460776;28;2809;-72
2023/12/12 07:06:53;;;;;;;;;;;;;;;6.27;100.00;95126.47;10465151;28;2926;-67
2023/12/12 07:11:56;;;;;;;;;;;;;;;6.11;100.00;95119.50;10455042;28;3216;-67
2023/12/12 07:16:58;;;;;;;;;;;;;;;6.06;100.00;95122.13;10463091;28;2791;-69
2023/12/12 07:22:01;;;;;;;;;;;;;;;6.00;100.00;95123.16;10466078;28;2828;-67
2023/12/12 07:27:04;;;;;;;;;;;;;;;5.90;100.00;95124.69;10460814;28;2958;-66
2023/12/12 07:32:07;;;;;;;;;;;;;;;5.87;100.00;95113.75;10462142;28;2944;-66
2023/12/12 07:37:10;;;;;;;;;;;;;;;5.96;100.00;95096.19;10457061;28;2878;-66
2023/12/12 07:42:13;;;;;;;;;;;;;;;5.95;100.00;95103.41;10464900;28;4984;-68
2023/12/12 07:47:17;;;;;;;;;;;;;;;6.10;100.00;95083.16;10452707;28;2928;-67
2023/12/12 07:52:19;;;;;;;;;;;;;;;6.13;100.00;95078.13;10451699;28;2900;-68
2023/12/12 07:57:23;;;;;;;;;;;;;;;6.11;100.00;95079.47;10458314;28;2857;-69
2023/12/12 08:02:25;;;;;;;;;;;;;;;6.13;100.00;95088.00;10457002;28;2839;-68
2023/12/12 08:07:28;;;;;;;;;;;;;;;6.27;100.00;95086.44;10458372;28;2960;-70
2023/12/12 08:12:31;;;;;;;;;;;;;;;6.30;100.00;95080.59;10459436;28;2874;-68
2023/12/12 08:17:34;;;;;;;;;;;;;;;6.46;100.00;95084.88;10466699;28;2826;-66
2023/12/12 08:22:37;;;;;;;;;;;;;;;6.61;100.00;95088.63;10447618;28;3145;-68
2023/12/12 08:27:40;;;;;;;;;;;;;;;6.70;100.00;95090.53;10460936;28;2805;-68
2023/12/12 08:32:43;;;;;;;;;;;;;;;6.65;100.00;95089.72;10452154;28;2982;-68
2023/12/12 08:37:45;;;;;;;;;;;;;;;6.81;100.00;95096.69;10456309;28;2963;-68
2023/12/12 08:42:48;;;;;;;;;;;;;;;6.82;100.00;95092.94;10457372;28;4981;-69
2023/12/12 08:47:50;;;;;;;;;;;;;;;6.96;100.00;95091.34;10455154;28;2956;-67
2023/12/12 08:52:53;;;;;;;;;;;;;;;6.94;100.00;95080.13;10451975;28;2939;-69
2023/12/12 08:57:55;;;;;;;;;;;;;;;7.11;100.00;95074.50;10454687;28;2807;-73
2023/12/12 09:02:58;;;;;;;;;;;;;;;7.32;100.00;95075.28;10454894;28;2949;-74
2023/12/12 09:08:00;;;;;;;;;;;;;;;7.45;100.00;95074.75;10457818;28;2847;-69
2023/12/12 09:13:02;;;;;;;;;;;;;;;7.42;100.00;95061.88;10454550;28;2832;-70
2023/12/12 09:18:05;;;;;;;;;;;;;;;7.46;100.00;95062.97;10452499;28;2937;-67
2023/12/12 09:23:22;;;;;;;;;;;;;;;7.36;100.00;95057.63;10455042;28;2872;-70
2023/12/12 09:28:24;;;;;;;;;;;;;;;7.16;100.00;95058.47;10458281;28;2807;-69
2023/12/12 09:33:27;;;;;;;;;;;;;;;7.19;100.00;95044.56;10455866;28;2799;-70
2023/12/12 09:38:29;;;;;;;;;;;;;;;7.31;100.00;95034.38;10453804;28;2837;-69
2023/12/12 09:43:32;;;;;;;;;;;;;;;7.45;100.00;95026.59;10449368;28;4762;-69
2023/12/12 09:48:35;;;;;;;;;;;;;;;7.51;100.00;95014.81;10450384;28;2977;-69
2023/12/12 09:53:39;;;;;;;;;;;;;;;7.75;100.00;95006.94;10451428;28;2821;-69
2023/12/12 09:58:43;;;;;;;;;;;;;;;7.98;100.00;94976.09;10462002;28;3078;-69
2023/12/12 10:03:46;;;;;;;;;;;;;;;7.96;100.00;94970.22;10463992;28;3072;-74
2023/12/12 10:08:49;;;;;;;;;;;;;;;7.95;100.00;94960.59;10467151;28;2866;-74
2023/12/12 10:13:54;;;;;;;;;;;;;;;8.04;100.00;94947.41;10464332;28;2954;-67
2023/12/12 10:18:58;;;;;;;;;;;;;;;8.13;100.00;94959.91;10459686;28;2797;-70
2023/12/12 10:24:01;;;;;;;;;;;;;;;8.35;100.00;94950.69;10455564;28;2980;-69
2023/12/12 10:29:04;;;;;;;;;;;;;;;8.37;100.00;94937.84;10465655;28;3001;-69
2023/12/12 10:34:06;;;;;;;;;;;;;;;8.70;100.00;94922.03;10492044;28;2990;-70
2023/12/12 10:39:09;;;;;;;;;;;;;;;8.73;100.00;94916.13;10493681;27;2839;-70
2023/12/12 10:44:11;;;;;;;;;;;;;;;8.62;100.00;94910.84;10460809;28;4228;-69
2023/12/12 10:49:14;;;;;;;;;;;;;;;8.59;100.00;94937.41;10460952;28;2872;-70
2023/12/12 10:54:16;;;;;;;;;;;;;;;8.43;100.00;94934.03;10462140;28;2828;-73
2023/12/12 10:59:19;;;;;;;;;;;;;;;8.53;100.00;94919.78;10462267;28;2781;-69
2023/12/12 11:04:41;;;;;;;;;;;;;;;8.63;100.00;94925.81;10460873;28;2965;-69
2023/12/12 11:09:44;;;;;;;;;;;;;;;8.45;100.00;94931.88;10454072;28;2780;-68
2023/12/12 11:14:46;;;;;;;;;;;;;;;8.19;100.00;94930.44;10463508;28;2861;-70
2023/12/12 11:19:48;;;;;;;;;;;;;;;7.87;100.00;94937.06;10467539;28;2840;-69
2023/12/12 11:24:51;;;;;;;;;;;;;;;7.70;100.00;94932.09;10454596;28;2844;-69
2023/12/12 11:29:54;;;;;;;;;;;;;;;7.46;100.00;94942.63;10446351;28;2906;-68
2023/12/12 11:34:56;;;;;;;;;;;;;;;7.30;100.00;94930.38;10449449;28;2886;-67
2023/12/12 11:40:00;;;;;;;;;;;;;;;7.24;100.00;94934.16;10456666;28;2943;-69
2023/12/12 11:45:02;;;;;;;;;;;;;;;7.18;100.00;94927.22;10448576;28;4911;-68
2023/12/12 11:50:07;;;;;;;;;;;;;;;7.28;100.00;94937.88;10455888;28;2868;-67
2023/12/12 11:55:10;;;;;;;;;;;;;;;7.20;100.00;94939.25;10448965;28;3049;-68
2023/12/12 12:00:13;;;;;;;;;;;;;;;7.21;100.00;94924.81;10454569;28;3456;-68
2023/12/12 12:05:15;;;;;;;;;;;;;;;7.19;100.00;94921.63;10448565;28;2897;-69
2023/12/12 12:10:18;;;;;;;;;;;;;;;7.18;100.00;94913.84;10483646;28;2863;-69
2023/12/12 12:15:20;;;;;;;;;;;;;;;7.19;100.00;94916.28;10451133;28;2875;-69
2023/12/12 12:20:23;;;;;;;;;;;;;;;7.14;100.00;94910.94;10449499;28;2938;-67
2023/12/12 12:25:26;;;;;;;;;;;;;;;7.10;100.00;94909.06;10459305;28;2888;-68
2023/12/12 12:30:30;;;;;;;;;;;;;;;7.08;100.00;94900.53;10448849;28;2905;-67
2023/12/12 12:35:32;;;;;;;;;;;;;;;7.13;100.00;94874.59;10455901;28;2804;-68
2023/12/12 12:40:35;;;;;;;;;;;;;;;7.36;100.00;94880.38;10454642;28;3196;-69
2023/12/12 12:45:38;;;;;;;;;;;;;;;7.34;100.00;94864.59;10452676;28;4834;-69
2023/12/12 12:50:41;;;;;;;;;;;;;;;7.33;100.00;94833.59;10452836;28;2800;-69
2023/12/12 12:55:43;;;;;;;;;;;;;;;7.46;100.00;94816.94;10463119;28;2865;-69
2023/12/12 13:00:47;;;;;;;;;;;;;;;7.46;100.00;94806.25;10450105;28;2936;-71
2023/12/12 13:05:49;;;;;;;;;;;;;;;7.45;100.00;94812.69;10450920;28;3026;-74
2023/12/12 13:10:52;;;;;;;;;;;;;;;7.63;100.00;94797.03;10453954;28;2885;-70
2023/12/12 13:15:54;;;;;;;;;;;;;;;7.65;100.00;94801.06;10449193;28;2824;-68
2023/12/12 13:20:57;;;;;;;;;;;;;;;7.54;100.00;94780.78;10449294;28;2843;-69
2023/12/12 13:25:59;;;;;;;;;;;;;;;7.54;100.00;94784.25;10449441;28;2873;-68
2023/12/12 13:31:02;;;;;;;;;;;;;;;7.55;100.00;94779.72;10452599;28;2855;-68
2023/12/12 13:36:05;;;;;;;;;;;;;;;7.49;100.00;94778.94;10465267;28;2832;-69
2023/12/12 13:41:08;;;;;;;;;;;;;;;7.40;100.00;94769.13;10455781;28;5133;-70
2023/12/12 13:46:11;;;;;;;;;;;;;;;7.44;100.00;94760.25;10456667;28;2969;-68
2023/12/12 13:51:14;;;;;;;;;;;;;;;7.28;100.00;94748.09;10460481;28;2836;-68
2023/12/12 13:56:21;;;;;;;;;;;;;;;7.26;100.00;94734.22;10456314;28;2837;-71
2023/12/12 14:01:23;;;;;;;;;;;;;;;7.23;100.00;94732.88;10455472;28;2792;-71
2023/12/12 14:06:27;;;;;;;;;;;;;;;7.20;100.00;94714.72;10458127;28;2816;-70
2023/12/12 14:11:30;;;;;;;;;;;;;;;7.22;100.00;94722.47;10453302;28;2860;-70
2023/12/12 14:16:32;;;;;;;;;;;;;;;7.13;100.00;94718.81;10459353;28;2824;-71
2023/12/12 14:21:42;;;;;;;;;;;;;;;7.11;100.00;94704.91;10465470;28;3379;-73
2023/12/12 14:26:44;;;;;;;;;;;;;;;7.20;100.00;94711.25;10461868;28;2864;-73
2023/12/12 14:31:46;;;;;;;;;;;;;;;7.12;100.00;94701.13;10458705;28;2752;-72
2023/12/12 14:36:49;;;;;;;;;;;;;;;7.11;100.00;94694.22;10461237;28;3135;-71
2023/12/12 14:41:51;;;;;;;;;;;;;;;7.18;100.00;94694.69;10453059;28;2899;-74
2023/12/12 14:46:54;;;;;;;;;;;;;;;7.21;100.00;94691.47;10450058;28;2884;-73
2023/12/12 14:51:58;;;;;;;;;;;;;;;7.25;100.00;94657.75;10457473;28;3240;-71
2023/12/12 14:57:01;;;;;;;;;;;;;;;7.25;100.00;94645.22;10447111;28;2860;-70
2023/12/12 15:02:14;;;;;;;;;;;;;;;7.29;100.00;94654.25;10448080;28;2930;-70
2023/12/12 15:07:17;;;;;;;;;;;;;;;7.30;100.00;94660.38;10452455;28;2868;-70
2023/12/12 15:12:19;;;;;;;;;;;;;;;7.30;100.00;94652.38;10456274;28;2899;-70
2023/12/12 15:17:22;;;;;;;;;;;;;;;7.28;100.00;94641.97;10448611;28;2793;-70
2023/12/12 15:22:24;;;;;;;;;;;;;;;7.36;100.00;94623.72;10454014;28;2786;-71
2023/12/12 15:27:26;;;;;;;;;;;;;;;7.38;100.00;94602.84;10459146;28;2832;-71
2023/12/12 15:32:29;;;;;;;;;;;;;;;7.38;100.00;94592.97;10447473;28;2947;-71
2023/12/12 15:37:32;;;;;;;;;;;;;;;7.34;100.00;94589.25;10449152;28;2847;-72
2023/12/12 15:42:34;;;;;;;;;;;;;;;7.35;100.00;94588.16;10449128;28;4987;-71
2023/12/12 15:47:37;;;;;;;;;;;;;;;7.37;100.00;94591.34;10447736;28;2880;-71
2023/12/12 15:52:39;;;;;;;;;;;;;;;7.35;100.00;94579.34;10449250;28;2901;-70
2023/12/12 15:57:42;;;;;;;;;;;;;;;7.40;100.00;94573.97;10444531;28;3186;-72
2023/12/12 16:02:44;;;;;;;;;;;;;;;7.32;100.00;94570.81;10444210;28;2908;-71
2023/12/12 16:07:47;;;;;;;;;;;;;;;7.20;100.00;94558.91;10453493;28;2851;-71
2023/12/12 16:12:50;;;;;;;;;;;;;;;7.23;100.00;94569.03;10450281;28;2823;-73
2023/12/12 16:17:52;;;;;;;;;;;;;;;7.24;100.00;94562.59;10454200;28;2860;-72
2023/12/12 16:22:55;;;;;;;;;;;;;;;7.26;100.00;94558.59;10452626;28;2913;-69
2023/12/12 16:27:58;;;;;;;;;;;;;;;7.25;100.00;94556.19;10451501;28;2860;-71
2023/12/12 16:33:03;;;;;;;;;;;;;;;7.25;100.00;94550.84;10453046;28;2857;-70
2023/12/12 16:38:06;;;;;;;;;;;;;;;7.29;100.00;94541.19;10455001;28;2900;-72
2023/12/12 16:43:08;;;;;;;;;;;;;;;7.28;100.00;94552.97;10446705;28;4703;-69
2023/12/12 16:48:11;;;;;;;;;;;;;;;7.25;100.00;94534.78;10459615;28;2863;-69
2023/12/12 16:53:14;;;;;;;;;;;;;;;7.29;100.00;94538.50;10457242;28;2927;-69
2023/12/12 16:58:19;;;;;;;;;;;;;;;7.32;100.00;94545.97;10456923;28;2865;-69
2023/12/12 17:03:21;;;;;;;;;;;;;;;7.32;100.00;94541.44;10467305;28;2923;-70
2023/12/12 17:08:24;;;;;;;;;;;;;;;7.36;100.00;94563.03;10478193;28;2790;-69
2023/12/12 17:13:26;;;;;;;;;;;;;;;7.38;100.00;94528.81;10480961;28;2860;-69
2023/12/12 17:18:30;;;;;;;;;;;;;;;7.46;100.00;94525.50;10460970;28;2847;-70
2023/12/12 17:23:32;;;;;;;;;;;;;;;7.50;100.00;94521.16;10466051;28;2829;-70
2023/12/12 17:28:35;;;;;;;;;;;;;;;7.52;100.00;94526.25;10458221;28;2908;-68
2023/12/12 17:33:37;;;;;;;;;;;;;;;7.56;100.00;94509.31;10464609;28;2863;-70
2023/12/12 17:38:42;;;;;;;;;;;;;;;7.67;100.00;94482.47;10466147;28;2804;-76
2023/12/12 17:43:46;;;;;;;;;;;;;;;7.65;100.00;94485.44;10472163;28;5125;-73
2023/12/12 17:48:50;;;;;;;;;;;;;;;7.69;100.00;94474.94;10465527;28;2982;-72
2023/12/12 17:53:53;;;;;;;;;;;;;;;7.71;100.00;94468.25;10464379;28;2847;-75
2023/12/12 17:58:56;;;;;;;;;;;;;;;7.72;100.00;94490.44;10468998;28;3014;-73
2023/12/12 18:04:02;;;;;;;;;;;;;;;7.78;100.00;94510.69;10464280;28;2819;-68
2023/12/12 18:09:05;;;;;;;;;;;;;;;7.87;100.00;94525.03;10466074;28;2936;-69
2023/12/12 18:14:08;;;;;;;;;;;;;;;7.92;100.00;94524.16;10465362;28;2856;-70
2023/12/12 18:19:11;;;;;;;;;;;;;;;7.99;100.00;94533.44;10465136;28;2840;-70
2023/12/12 18:24:14;;;;;;;;;;;;;;;8.03;100.00;94531.78;10471330;28;2796;-70
2023/12/12 18:29:17;;;;;;;;;;;;;;;8.06;100.00;94541.91;10474933;28;2806;-70
2023/12/12 18:34:21;;;;;;;;;;;;;;;8.10;100.00;94550.97;10464012;28;2799;-70
2023/12/12 18:39:25;;;;;;;;;;;;;;;8.11;100.00;94547.19;10468078;28;3030;-69
2023/12/12 18:44:27;;;;;;;;;;;;;;;8.10;100.00;94550.97;10472180;28;4973;-71
2023/12/12 18:49:30;;;;;;;;;;;;;;;8.12;100.00;94548.00;10465416;28;2901;-69
2023/12/12 18:54:32;;;;;;;;;;;;;;;8.12;100.00;94554.13;10463603;28;2853;-71
2023/12/12 18:59:35;;;;;;;;;;;;;;;8.19;100.00;94544.94;10460858;28;2886;-69
2023/12/12 19:04:37;;;;;;;;;;;;;;;8.17;100.00;94541.78;10462146;28;2934;-70
2023/12/12 19:09:40;;;;;;;;;;;;;;;8.18;100.00;94541.47;10460885;28;2834;-71
2023/12/12 19:14:43;;;;;;;;;;;;;;;8.17;100.00;94531.06;10468846;28;2863;-70
2023/12/12 19:19:45;;;;;;;;;;;;;;;8.10;100.00;94528.75;10457869;28;3076;-70
2023/12/12 19:24:48;;;;;;;;;;;;;;;8.09;100.00;94519.13;10455726;28;2872;-69
2023/12/12 19:29:50;;;;;;;;;;;;;;;8.06;100.00;94507.09;10461070;28;2879;-69
2023/12/12 19:34:53;;;;;;;;;;;;;;;8.07;100.00;94506.03;10463628;28;2796;-69
2023/12/12 19:39:59;;;;;;;;;;;;;;;8.08;100.00;94494.25;10462050;28;3177;-69
2023/12/12 19:45:01;;;;;;;;;;;;;;;8.07;100.00;94487.28;10453557;28;2811;-69
2023/12/12 19:50:04;;;;;;;;;;;;;;;8.09;100.00;94493.16;10463569;28;2915;-69
2023/12/12 19:55:07;;;;;;;;;;;;;;;8.09;100.00;94482.47;10470950;28;2916;-70
2023/12/12 20:00:11;;;;;;;;;;;;;;;8.07;100.00;94489.97;10483576;28;2240;-69
2023/12/12 20:05:14;;;;;;;;;;;;;;;8.13;100.00;94504.06;10480200;28;1575;-70
2023/12/12 20:10:17;;;;;;;;;;;;;;;8.10;100.00;94502.00;10482558;28;2280;-68
2023/12/12 20:15:20;;;;;;;;;;;;;;;8.12;100.00;94497.13;10483431;28;2395;-69
2023/12/12 20:20:24;;;;;;;;;;;;;;;8.06;100.00;94491.03;10480421;28;1984;-71
2023/12/12 20:25:27;;;;;;;;;;;;;;;8.11;100.00;94493.66;10482460;28;1528;-70
2023/12/12 20:30:34;;;;;;;;;;;;;;;8.04;100.00;94471.81;10483344;28;1480;-68
2023/12/12 20:35:37;;;;;;;;;;;;;;;8.07;100.00;94471.22;10482868;28;1604;-68
2023/12/12 20:40:39;;;;;;;;;;;;;;;8.08;100.00;94466.69;10477322;28;1918;-71
2023/12/12 20:45:42;;;;;;;;;;;;;;;8.07;100.00;94476.56;10479207;28;5174;-72
2023/12/12 20:50:47;;;;;;;;;;;;;;;8.03;100.00;94470.22;10481192;28;2237;-70
2023/12/12 20:55:50;;;;;;;;;;;;;;;8.03;100.00;94469.44;10477172;28;1523;-68
2023/12/12 21:00:52;;;;;;;;;;;;;;;8.02;100.00;94490.06;10484091;28;1910;-68
2023/12/12 21:05:56;;;;;;;;;;;;;;;8.05;100.00;94484.09;10466845;28;2805;-69
2023/12/12 21:10:58;;;;;;;;;;;;;;;8.01;100.00;94480.41;10476322;28;2718;-69
2023/12/12 21:16:01;;;;;;;;;;;;;;;8.09;100.00;94469.06;10477579;28;2274;-70
2023/12/12 21:21:03;;;;;;;;;;;;;;;8.09;100.00;94463.72;10475081;28;1910;-69
2023/12/12 21:26:06;;;;;;;;;;;;;;;8.26;100.00;94473.09;10475402;28;1507;-70
2023/12/12 21:31:08;;;;;;;;;;;;;;;8.15;100.00;94471.69;10480356;28;2280;-69
2023/12/12 21:36:11;;;;;;;;;;;;;;;8.18;100.00;94471.09;10481664;28;1494;-69
2023/12/12 21:41:13;;;;;;;;;;;;;;;8.13;100.00;94458.56;10478541;28;4786;-69
2023/12/12 21:46:16;;;;;;;;;;;;;;;8.14;100.00;94449.44;10474654;28;2850;-69
2023/12/12 21:51:18;;;;;;;;;;;;;;;8.13;100.00;94454.00;10464421;28;2869;-69
2023/12/12 21:56:21;;;;;;;;;;;;;;;8.12;100.00;94449.75;10460406;28;2951;-69
2023/12/12 22:01:23;;;;;;;;;;;;;;;8.11;100.00;94453.50;10463001;28;2969;-69
2023/12/12 22:06:26;;;;;;;;;;;;;;;8.07;100.00;94443.66;10462602;28;2856;-74
2023/12/12 22:11:28;;;;;;;;;;;;;;;7.98;100.00;94440.06;10463628;28;2914;-69
2023/12/12 22:16:31;;;;;;;;;;;;;;;7.96;100.00;94431.53;10463116;28;2874;-71
2023/12/12 22:21:33;;;;;;;;;;;;;;;7.93;100.00;94424.88;10464386;28;2832;-69
2023/12/12 22:26:36;;;;;;;;;;;;;;;7.89;100.00;94437.25;10458973;28;3079;-68
2023/12/12 22:31:40;;;;;;;;;;;;;;;7.85;100.00;94415.63;10460897;28;2808;-71
2023/12/12 22:36:42;;;;;;;;;;;;;;;7.84;100.00;94429.28;10466715;28;2888;-75
2023/12/12 22:41:45;;;;;;;;;;;;;;;7.82;100.00;94428.75;10467309;28;2916;-72
2023/12/12 22:46:47;;;;;;;;;;;;;;;7.77;100.00;94424.31;10459540;28;2802;-73
2023/12/12 22:51:49;;;;;;;;;;;;;;;7.78;100.00;94419.75;10461624;28;3323;-68
2023/12/12 22:56:52;;;;;;;;;;;;;;;7.76;100.00;94427.25;10467046;28;2848;-68
2023/12/12 23:01:55;;;;;;;;;;;;;;;7.74;100.00;94408.81;10461862;28;2805;-69
2023/12/12 23:06:58;;;;;;;;;;;;;;;7.75;100.00;94426.44;10463818;28;2786;-72
2023/12/12 23:12:01;;;;;;;;;;;;;;;7.77;100.00;94428.84;10467726;28;2892;-69
2023/12/12 23:17:04;;;;;;;;;;;;;;;7.78;100.00;94419.75;10461382;28;2781;-69
2023/12/12 23:22:08;;;;;;;;;;;;;;;7.76;100.00;94405.84;10466772;28;2784;-68
2023/12/12 23:27:11;;;;;;;;;;;;;;;7.75;100.00;94404.25;10468869;28;2836;-67
2023/12/12 23:32:13;;;;;;;;;;;;;;;7.75;100.00;94386.31;10462554;28;2804;-68
2023/12/12 23:37:19;;;;;;;;;;;;;;;7.76;100.00;94381.78;10459081;28;2856;-67
2023/12/12 23:42:24;;;;;;;;;;;;;;;7.67;100.00;94372.81;10474584;28;4975;-69
2023/12/12 23:47:27;;;;;;;;;;;;;;;7.71;100.00;94360.47;10470017;28;2824;-70
2023/12/12 23:52:29;;;;;;;;;;;;;;;7.65;100.00;94362.41;10459985;28;2947;-69
2023/12/12 23:57:31;;;;;;;;;;;;;;;7.64;100.00;94360.03;10464337;28;2797;-68
